Terminal Aerodrome Forecast
Issued by NWS Paducah, KY

Home | Current Version | Previous Version | Text Only | Print | Product List | Glossary On
Versions: 1 2 3 4 5 6 7 8 9 10 11 12 13 14 15 16
000
FTUS43 KPAH 160400 AAA
TAFEVV
TAF AMD
KEVV 160416Z 1604/1624 23004KT P6SM OVC025
     FM160600 33005KT P6SM SCT006 OVC017
      TEMPO 1606/1610 4SM BR BKN006
     FM161300 01006KT P6SM BKN015
     FM162100 35004KT P6SM SCT017=

USA.gov is the U.S. government's official web portal to all federal, state and local government web resources and services.